Buoy 53524

sailwx.info

Track history (hours):
 
Tides and Currents Weather Stations Pressure Air Temp Water Temp Dewpoint Dewpoint Depression Visibility Wind Speed Wind Dir Waves Ship Positions

Drifting buoy 53524

Last reported at 2014-Oct-31 08:00 UTC. Time now 2014-Oct-31 10:02 UTC.
Position S 08°41' E 085°17'.

Barometer 1009.3 mb
Water temperature 28.6 ° C

Date/timePositionNaut miles runAvg speedWind from/ knotsBaromVisibWave heightAir tempDewpointWater temp
2014-Oct-31 08:00S 08°41' E 085°17'0 0.0 1009.3 28.6
2014-Oct-31 07:00S 08°41' E 085°17'6 0.9 1009.8 28.6
2014-Oct-31 00:00S 08°40' E 085°24'1 1.5 1010.3 28.4
2014-Oct-30 23:00S 08°40' E 085°25'0 0.0 1009.8 28.4
2014-Oct-30 22:00S 08°40' E 085°25'1 0.9 1009.5 28.4
2014-Oct-30 21:00S 08°40' E 085°26'0 0.0 1009.4 28.4
2014-Oct-30 20:00S 08°40' E 085°26'1 0.7 1010.2 28.4
2014-Oct-30 19:00S 08°40' E 085°27'1 0.3 1010.8 28.4
2014-Oct-30 16:00S 08°40' E 085°27'3 0.7 1012.3 28.4
2014-Oct-30 12:00S 08°38' E 085°29'2 1.2 1010.3 28.5
2014-Oct-30 10:00S 08°38' E 085°32'3 1.7 1009.6 28.6
2014-Oct-30 08:00S 08°37' E 085°35'3 3.5 1010.3 28.6
2014-Oct-30 07:00S 08°38' E 085°32'4 1.0 1010.8 28.6
2014-Oct-30 03:00S 08°37' E 085°36'2 0.9 1012.5 28.3
2014-Oct-30 01:00S 08°36' E 085°37'1 1.3 1011.1 28.3
2014-Oct-30 00:00S 08°36' E 085°39'5 0.9 1010.4 28.3
2014-Oct-29 19:00S 08°34' E 085°43'0 0.0 1010.8 28.3
2014-Oct-29 16:00S 08°34' E 085°43'4 1.0 1011.8 28.4
2014-Oct-29 12:00S 08°32' E 085°46'4 1.0 1010.1 28.4
2014-Oct-29 08:00S 08°32' E 085°50'0 0.0 1010.0 28.5
2014-Oct-29 06:00S 08°32' E 085°50'3 0.4 1011.3 28.4
2014-Oct-28 23:00S 08°31' E 085°53'4 1.0 1011.0 28.2
2014-Oct-28 19:00S 08°30' E 085°57'0 0.0 1011.7 28.3
2014-Oct-28 18:00S 08°30' E 085°57'0 0.2 1012.4 28.3
2014-Oct-28 16:00S 08°30' E 085°57'1 0.4 1013.1 28.3
2014-Oct-28 14:00S 08°30' E 085°57'1 1.3 1011.7 28.3
2014-Oct-28 13:00S 08°29' E 085°59'1 0.4 1011.1 28.3
2014-Oct-28 10:00S 08°29' E 085°60'1 0.7 1009.6 28.5
2014-Oct-28 08:00S 08°28' E 086°01'0 0.0 1010.5 28.5
2014-Oct-28 07:00S 08°28' E 086°01'1 0.3 1011.2 28.5
2014-Oct-28 04:00S 08°28' E 086°02'1 0.2 1012.6 28.3
2014-Oct-28 00:00S 08°28' E 086°03'1 1.1 1011.2 28.2
2014-Oct-27 23:00S 08°27' E 086°03'0 0.0 1010.8 28.2
2014-Oct-27 22:00S 08°27' E 086°03'2 0.7 1010.7 28.2
2014-Oct-27 19:00S 08°26' E 086°05'4 1.2 1011.9 28.2
2014-Oct-27 16:00S 08°25' E 086°08'1 0.7 1013.4 28.2
2014-Oct-27 15:00S 08°25' E 086°09'2 0.4 1013.2 28.3
2014-Oct-27 10:00S 08°24' E 086°10'4 1.3 1010.3 28.4
2014-Oct-27 07:00S 08°24' E 086°14'1 0.3 1011.6 28.3
2014-Oct-27 04:00S 08°24' E 086°15'1 0.2 1013.3 28.2
2014-Oct-26 23:00S 08°24' E 086°16'3 3.4 1011.0 28.1
2014-Oct-26 22:00S 08°23' E 086°20'0 0.0 1010.9 28.2
2014-Oct-26 20:00S 08°23' E 086°20'0 0.0 1011.6 28.2
2014-Oct-26 19:00S 08°23' E 086°20'2 0.4 1012.5 28.2
2014-Oct-26 15:00S 08°24' E 086°21'1 0.2 1013.9 28.2
2014-Oct-26 11:00S 08°24' E 086°22'0 0.5 1011.1 28.2
2014-Oct-26 10:00S 08°24' E 086°22'0 0.0 1011.2 28.3
2014-Oct-26 09:00S 08°24' E 086°22'1 1.3 1011.7 28.3
2014-Oct-26 08:00S 08°24' E 086°24'0 0.1 1011.7 28.3
2014-Oct-26 07:00S 08°24' E 086°24'4 1.2 1012.3 28.3
2014-Oct-26 04:00S 08°25' E 086°27'0 0.0 1013.3 28.2
2014-Oct-26 02:00S 08°25' E 086°27'0 0.0 1012.9 28.2
2014-Oct-26 01:00S 08°25' E 086°27'1 0.4 1012.3 28.2
2014-Oct-25 22:00S 08°25' E 086°28'1 0.4 1010.9 28.2
2014-Oct-25 20:00S 08°25' E 086°29'1 0.4 1011.7 28.2
2014-Oct-25 17:00S 08°24' E 086°30'0 0.2 1013.8 28.2
2014-Oct-25 16:00S 08°24' E 086°29'2 1.9 1013.8 28.2
2014-Oct-25 15:00S 08°23' E 086°31'4 1.4 1013.0 28.2
2014-Oct-25 12:00S 08°21' E 086°35'1 0.3 1011.2 28.3
2014-Oct-25 09:00S 08°21' E 086°35'4 2.2 1010.3 28.3
2014-Oct-25 07:00S 08°19' E 086°39'0 0.0 1011.4 28.3
2014-Oct-25 04:00S 08°19' E 086°39'3 3.1 1013.6 28.2
2014-Oct-25 03:00S 08°17' E 086°42'1 0.3 1013.4 28.1
2014-Oct-25 00:00S 08°17' E 086°43'3 2.8 1011.3 28.0
2014-Oct-24 23:00S 08°16' E 086°46'0 0.0 1010.6 28.0
2014-Oct-24 20:00S 08°16' E 086°46'5 1.3 1011.0 28.0
2014-Oct-24 16:00S 08°14' E 086°50'4 1.8 1013.2 28.0
2014-Oct-24 14:00S 08°13' E 086°54'4 0.7 1012.5 28.0
2014-Oct-24 09:00S 08°12' E 086°57'1 0.4 1009.5 28.2
2014-Oct-24 07:00S 08°12' E 086°58'3 0.8 1010.6 28.1
2014-Oct-24 04:00S 08°12' E 087°01'4 0.7 1012.4 28.1
2014-Oct-23 22:00S 08°12' E 087°05'1 0.9 1009.8 28.1
2014-Oct-23 21:00S 08°11' E 087°05'0 0.2 1009.9 28.1
2014-Oct-23 20:00S 08°11' E 087°05'1 1.5 1010.5 28.1
2014-Oct-23 19:00S 08°10' E 087°06'3 0.9 1011.3 28.1
2014-Oct-23 16:00S 08°09' E 087°09'3 1.4 1013.5 28.1
2014-Oct-23 14:00S 08°09' E 087°12'1 0.3 1012.7 28.1
2014-Oct-23 11:00S 08°09' E 087°13'1 0.8 1010.4 28.2
2014-Oct-23 10:00S 08°09' E 087°14'4 1.4 1010.2 28.2
2014-Oct-23 07:00S 08°09' E 087°18'0 0.0 1010.9 28.2
2014-Oct-23 06:00S 08°09' E 087°18'2 1.0 1011.4 28.2
2014-Oct-23 04:00S 08°09' E 087°20'0 0.0 1013.2 28.1
2014-Oct-23 01:00S 08°09' E 087°20'0 0.2 1013.1 28.1
2014-Oct-22 23:00S 08°08' E 087°20'0 0.4 1011.5 28.1
2014-Oct-22 22:00S 08°08' E 087°19'1 1.4 1010.4 28.1
2014-Oct-22 21:00S 08°08' E 087°21'0 0.1 1011.4 28.0
2014-Oct-22 20:00S 08°08' E 087°21'3 0.8 1012.5 28.0
2014-Oct-22 16:00S 08°08' E 087°24'3 0.6 1015.2 28.2
2014-Oct-22 11:00S 08°06' E 087°27'1 0.6 1011.7 28.2
2014-Oct-22 10:00S 08°06' E 087°27'0 0.0 1010.9 28.2
2014-Oct-22 08:00S 08°06' E 087°27'6 1.4 1011.1 28.2
2014-Oct-22 04:00S 08°03' E 087°32'0 0.0 1013.4 28.2
2014-Oct-22 00:00S 08°03' E 087°32'2 1.5 1010.5 28.2
2014-Oct-21 23:00S 08°02' E 087°33'1 0.7 1010.6 28.2
2014-Oct-21 22:00S 08°01' E 087°34'1 1.3 1009.6 28.2
2014-Oct-21 21:00S 08°00' E 087°34'1 1.2 1009.2 28.2
2014-Oct-21 20:00S 08°01' E 087°36'2 2.1 1009.4 28.1
2014-Oct-21 19:00S 08°00' E 087°38'3 0.5 1010.1 28.1
2014-Oct-21 14:00S 08°00' E 087°40'2 1.2 1009.6 28.1
2014-Oct-21 12:00S 07°60' E 087°43'5 2.4 1008.8 28.1
2014-Oct-21 10:00S 07°57' E 087°47'0 0.0 1008.0 28.1
2014-Oct-21 08:00S 07°57' E 087°47'   1008.7 28.0
Track history (hours):
 
Tides and Currents Weather Stations Pressure Air Temp Water Temp Dewpoint Dewpoint Depression Visibility Wind Speed Wind Dir Waves Ship Positions

Drifting buoy 53524

Last reported at 2014-Oct-31 08:00 UTC. Time now 2014-Oct-31 10:02 UTC.
Position S 08°41' E 085°17'.

Barometer 1009.3 mb
Water temperature 28.6 ° C

Date/timePositionNaut miles runAvg speedWind from/ knotsBaromVisibWave heightAir tempDewpointWater temp
2014-Oct-31 08:00S 08°41' E 085°17'0 0.0 1009.3 28.6
2014-Oct-31 07:00S 08°41' E 085°17'6 0.9 1009.8 28.6
2014-Oct-31 00:00S 08°40' E 085°24'1 1.5 1010.3 28.4
2014-Oct-30 23:00S 08°40' E 085°25'0 0.0 1009.8 28.4
2014-Oct-30 22:00S 08°40' E 085°25'1 0.9 1009.5 28.4
2014-Oct-30 21:00S 08°40' E 085°26'0 0.0 1009.4 28.4
2014-Oct-30 20:00S 08°40' E 085°26'1 0.7 1010.2 28.4
2014-Oct-30 19:00S 08°40' E 085°27'1 0.3 1010.8 28.4
2014-Oct-30 16:00S 08°40' E 085°27'3 0.7 1012.3 28.4
2014-Oct-30 12:00S 08°38' E 085°29'2 1.2 1010.3 28.5
2014-Oct-30 10:00S 08°38' E 085°32'3 1.7 1009.6 28.6
2014-Oct-30 08:00S 08°37' E 085°35'3 3.5 1010.3 28.6
2014-Oct-30 07:00S 08°38' E 085°32'4 1.0 1010.8 28.6
2014-Oct-30 03:00S 08°37' E 085°36'2 0.9 1012.5 28.3
2014-Oct-30 01:00S 08°36' E 085°37'1 1.3 1011.1 28.3
2014-Oct-30 00:00S 08°36' E 085°39'5 0.9 1010.4 28.3
2014-Oct-29 19:00S 08°34' E 085°43'0 0.0 1010.8 28.3
2014-Oct-29 16:00S 08°34' E 085°43'4 1.0 1011.8 28.4
2014-Oct-29 12:00S 08°32' E 085°46'4 1.0 1010.1 28.4
2014-Oct-29 08:00S 08°32' E 085°50'0 0.0 1010.0 28.5
2014-Oct-29 06:00S 08°32' E 085°50'3 0.4 1011.3 28.4
2014-Oct-28 23:00S 08°31' E 085°53'4 1.0 1011.0 28.2
2014-Oct-28 19:00S 08°30' E 085°57'0 0.0 1011.7 28.3
2014-Oct-28 18:00S 08°30' E 085°57'0 0.2 1012.4 28.3
2014-Oct-28 16:00S 08°30' E 085°57'1 0.4 1013.1 28.3
2014-Oct-28 14:00S 08°30' E 085°57'1 1.3 1011.7 28.3
2014-Oct-28 13:00S 08°29' E 085°59'1 0.4 1011.1 28.3
2014-Oct-28 10:00S 08°29' E 085°60'1 0.7 1009.6 28.5
2014-Oct-28 08:00S 08°28' E 086°01'0 0.0 1010.5 28.5
2014-Oct-28 07:00S 08°28' E 086°01'1 0.3 1011.2 28.5
2014-Oct-28 04:00S 08°28' E 086°02'1 0.2 1012.6 28.3
2014-Oct-28 00:00S 08°28' E 086°03'1 1.1 1011.2 28.2
2014-Oct-27 23:00S 08°27' E 086°03'0 0.0 1010.8 28.2
2014-Oct-27 22:00S 08°27' E 086°03'2 0.7 1010.7 28.2
2014-Oct-27 19:00S 08°26' E 086°05'4 1.2 1011.9 28.2
2014-Oct-27 16:00S 08°25' E 086°08'1 0.7 1013.4 28.2
2014-Oct-27 15:00S 08°25' E 086°09'2 0.4 1013.2 28.3
2014-Oct-27 10:00S 08°24' E 086°10'4 1.3 1010.3 28.4
2014-Oct-27 07:00S 08°24' E 086°14'1 0.3 1011.6 28.3
2014-Oct-27 04:00S 08°24' E 086°15'1 0.2 1013.3 28.2
2014-Oct-26 23:00S 08°24' E 086°16'3 3.4 1011.0 28.1
2014-Oct-26 22:00S 08°23' E 086°20'0 0.0 1010.9 28.2
2014-Oct-26 20:00S 08°23' E 086°20'0 0.0 1011.6 28.2
2014-Oct-26 19:00S 08°23' E 086°20'2 0.4 1012.5 28.2
2014-Oct-26 15:00S 08°24' E 086°21'1 0.2 1013.9 28.2
2014-Oct-26 11:00S 08°24' E 086°22'0 0.5 1011.1 28.2
2014-Oct-26 10:00S 08°24' E 086°22'0 0.0 1011.2 28.3
2014-Oct-26 09:00S 08°24' E 086°22'1 1.3 1011.7 28.3
2014-Oct-26 08:00S 08°24' E 086°24'0 0.1 1011.7 28.3
2014-Oct-26 07:00S 08°24' E 086°24'4 1.2 1012.3 28.3
2014-Oct-26 04:00S 08°25' E 086°27'0 0.0 1013.3 28.2
2014-Oct-26 02:00S 08°25' E 086°27'0 0.0 1012.9 28.2
2014-Oct-26 01:00S 08°25' E 086°27'1 0.4 1012.3 28.2
2014-Oct-25 22:00S 08°25' E 086°28'1 0.4 1010.9 28.2
2014-Oct-25 20:00S 08°25' E 086°29'1 0.4 1011.7 28.2
2014-Oct-25 17:00S 08°24' E 086°30'0 0.2 1013.8 28.2
2014-Oct-25 16:00S 08°24' E 086°29'2 1.9 1013.8 28.2
2014-Oct-25 15:00S 08°23' E 086°31'4 1.4 1013.0 28.2
2014-Oct-25 12:00S 08°21' E 086°35'1 0.3 1011.2 28.3
2014-Oct-25 09:00S 08°21' E 086°35'4 2.2 1010.3 28.3
2014-Oct-25 07:00S 08°19' E 086°39'0 0.0 1011.4 28.3
2014-Oct-25 04:00S 08°19' E 086°39'3 3.1 1013.6 28.2
2014-Oct-25 03:00S 08°17' E 086°42'1 0.3 1013.4 28.1
2014-Oct-25 00:00S 08°17' E 086°43'3 2.8 1011.3 28.0
2014-Oct-24 23:00S 08°16' E 086°46'0 0.0 1010.6 28.0
2014-Oct-24 20:00S 08°16' E 086°46'5 1.3 1011.0 28.0
2014-Oct-24 16:00S 08°14' E 086°50'4 1.8 1013.2 28.0
2014-Oct-24 14:00S 08°13' E 086°54'4 0.7 1012.5 28.0
2014-Oct-24 09:00S 08°12' E 086°57'1 0.4 1009.5 28.2
2014-Oct-24 07:00S 08°12' E 086°58'3 0.8 1010.6 28.1
2014-Oct-24 04:00S 08°12' E 087°01'4 0.7 1012.4 28.1
2014-Oct-23 22:00S 08°12' E 087°05'1 0.9 1009.8 28.1
2014-Oct-23 21:00S 08°11' E 087°05'0 0.2 1009.9 28.1
2014-Oct-23 20:00S 08°11' E 087°05'1 1.5 1010.5 28.1
2014-Oct-23 19:00S 08°10' E 087°06'3 0.9 1011.3 28.1
2014-Oct-23 16:00S 08°09' E 087°09'3 1.4 1013.5 28.1
2014-Oct-23 14:00S 08°09' E 087°12'1 0.3 1012.7 28.1
2014-Oct-23 11:00S 08°09' E 087°13'1 0.8 1010.4 28.2
2014-Oct-23 10:00S 08°09' E 087°14'4 1.4 1010.2 28.2
2014-Oct-23 07:00S 08°09' E 087°18'0 0.0 1010.9 28.2
2014-Oct-23 06:00S 08°09' E 087°18'2 1.0 1011.4 28.2
2014-Oct-23 04:00S 08°09' E 087°20'0 0.0 1013.2 28.1
2014-Oct-23 01:00S 08°09' E 087°20'0 0.2 1013.1 28.1
2014-Oct-22 23:00S 08°08' E 087°20'0 0.4 1011.5 28.1
2014-Oct-22 22:00S 08°08' E 087°19'1 1.4 1010.4 28.1
2014-Oct-22 21:00S 08°08' E 087°21'0 0.1 1011.4 28.0
2014-Oct-22 20:00S 08°08' E 087°21'3 0.8 1012.5 28.0
2014-Oct-22 16:00S 08°08' E 087°24'3 0.6 1015.2 28.2
2014-Oct-22 11:00S 08°06' E 087°27'1 0.6 1011.7 28.2
2014-Oct-22 10:00S 08°06' E 087°27'0 0.0 1010.9 28.2
2014-Oct-22 08:00S 08°06' E 087°27'6 1.4 1011.1 28.2
2014-Oct-22 04:00S 08°03' E 087°32'0 0.0 1013.4 28.2
2014-Oct-22 00:00S 08°03' E 087°32'2 1.5 1010.5 28.2
2014-Oct-21 23:00S 08°02' E 087°33'1 0.7 1010.6 28.2
2014-Oct-21 22:00S 08°01' E 087°34'1 1.3 1009.6 28.2
2014-Oct-21 21:00S 08°00' E 087°34'1 1.2 1009.2 28.2
2014-Oct-21 20:00S 08°01' E 087°36'2 2.1 1009.4 28.1
2014-Oct-21 19:00S 08°00' E 087°38'3 0.5 1010.1 28.1
2014-Oct-21 14:00S 08°00' E 087°40'2 1.2 1009.6 28.1
2014-Oct-21 12:00S 07°60' E 087°43'5 2.4 1008.8 28.1
2014-Oct-21 10:00S 07°57' E 087°47'0 0.0 1008.0 28.1
2014-Oct-21 08:00S 07°57' E 087°47'   1008.7 28.0

Dump ship's entire track history